Airport View

Enter AWOS ICAO identifier for current METAR.

ex. KFNL

KTMK 111915Z AUTO 17004KT 10SM SCT027 BKN032 OVC070 11/08 A3001 RMK AO2

11 Dec 2019 19:42

Frequency: 120.0

Phone: 503-842-8792

Other Area AWOS: KMMV - KHIO - KAST - KUAO

TAF AMD KHIO 111856Z 1119/1218 00000KT P6SM FEW006 FM112100 18011KT 6SM BR OVC028 TEMPO 1121/1124 2SM -RA OVC015 FM120000 17013G21KT 5SM BR OVC018 FM120300 18015KT 5SM RA OVC013 FM120700 19012KT 5SM -RA OVC035 FM121400 20009KT 5SM -RA OVC040